General Aviation Weather

Text Reports

Enter one or more of the following location identifiers separated by a space:

Zip Code, Four-Character ICAO or Three-Character IATA airport codes.

METAR - Aviation Routine Weather Report
KSWO - Stillwater, Oklahoma
Updated at 8:53 PM GMT on October 01, 2014 (3:53 PM CDT):
METAR KSWO 012053Z 18016G25KT 10SM SCT070 33/18 A2965 RMK AO2 PK WND 21027/1959 SLP026 T03330178 56020
TAF - Terminal Area Forecast
KSWO - Stillwater, Oklahoma
Updated at 8:53 PM GMT on October 01, 2014 (3:53 PM CDT):
No TAF is currently available for this location.
Decoded:
No decoded TAF is available.
PIREP - Pilot Weather Report
KSWO - Stillwater, Oklahoma
Updated at 8:53 PM GMT on October 01, 2014 (3:53 PM CDT):
No PIREP is currently available for this location.
AIRMET - Airmens Meteorological Information
KSWO - Stillwater, Oklahoma
Updated at 8:53 PM GMT on October 01, 2014 (3:53 PM CDT):
No AIRMET is currently available for this location.
SIGMET - Significant Meteorological Information
KSWO - Stillwater, Oklahoma
Updated at 8:53 PM GMT on October 01, 2014 (3:53 PM CDT):
No SIGMET is currently available for this location.
NOTAM - Notice to Airmen
KSWO - Stillwater, Oklahoma
Updated at 8:53 PM GMT on October 01, 2014 (3:53 PM CDT):
No NOTAM is currently available for this location.
Forecast Area
KSWO - Stillwater, Oklahoma
Updated at 8:53 PM GMT on October 01, 2014 (3:53 PM CDT):
No NOTAM is currently available for this location.
Aviation Weather Maps